createdAt,value
2023-05-04T00:00:42.859Z,941.49
2023-05-04T00:01:43.839Z,941.48
2023-05-04T00:02:44.468Z,941.49
2023-05-04T00:03:44.883Z,941.45
2023-05-04T00:04:45.414Z,941.45
2023-05-04T00:05:46.431Z,941.47
2023-05-04T00:06:46.543Z,941.43
2023-05-04T00:07:47.446Z,941.43
2023-05-04T00:08:48.137Z,941.38
2023-05-04T00:09:48.853Z,941.42
2023-05-04T00:10:49.160Z,941.4
2023-05-04T00:11:49.496Z,941.42
2023-05-04T00:12:50.232Z,941.41
2023-05-04T00:13:50.476Z,941.42
2023-05-04T00:14:51.182Z,941.42
2023-05-04T00:15:51.493Z,941.42
2023-05-04T00:16:52.159Z,941.39
2023-05-04T00:17:52.796Z,941.39
2023-05-04T00:18:53.745Z,941.39
2023-05-04T00:19:54.494Z,941.34
2023-05-04T00:20:55.489Z,941.39
2023-05-04T00:21:56.405Z,941.35
2023-05-04T00:22:57.252Z,941.34
2023-05-04T00:23:57.944Z,941.33
2023-05-04T00:24:58.102Z,941.34
2023-05-04T00:25:58.913Z,941.31
2023-05-04T00:26:59.214Z,941.27
2023-05-04T00:27:59.954Z,941.27
2023-05-04T00:29:00.034Z,941.22
2023-05-04T00:30:00.769Z,941.2
2023-05-04T00:31:00.991Z,941.21
2023-05-04T00:32:01.987Z,941.21
2023-05-04T00:33:02.703Z,941.17
2023-05-04T00:34:03.447Z,941.13
2023-05-04T00:35:04.341Z,941.14
2023-05-04T00:36:04.673Z,941.14
2023-05-04T00:37:05.477Z,941.12
2023-05-04T00:38:06.216Z,941.09
2023-05-04T00:39:06.918Z,941.1
2023-05-04T00:40:07.853Z,941.08
2023-05-04T00:41:07.996Z,941.06
2023-05-04T00:42:08.924Z,941.08
2023-05-04T00:43:09.175Z,941.07
2023-05-04T00:44:09.900Z,941.07
2023-05-04T00:45:10.782Z,941.1
2023-05-04T00:46:11.276Z,941.06
2023-05-04T00:47:11.695Z,941.06
2023-05-04T00:48:12.501Z,941.07
2023-05-04T00:49:13.066Z,941.06
2023-05-04T00:50:13.373Z,941.02
2023-05-04T00:51:13.677Z,941.07
2023-05-04T00:52:14.214Z,941.06
2023-05-04T00:53:14.771Z,941.07
2023-05-04T00:54:15.073Z,941.06
2023-05-04T00:55:15.821Z,941.04
2023-05-04T00:56:16.615Z,941.05
2023-05-04T00:57:17.323Z,941.03
2023-05-04T00:58:17.651Z,941.02
2023-05-04T00:59:18.356Z,941.04
2023-05-04T01:00:19.068Z,941.02
2023-05-04T01:01:19.634Z,941.03
2023-05-04T01:02:19.803Z,941.03
2023-05-04T01:03:20.643Z,941.02
2023-05-04T01:04:21.617Z,941.07
2023-05-04T01:05:22.315Z,941.03
2023-05-04T01:06:22.846Z,941.05
2023-05-04T01:07:23.793Z,941.06
2023-05-04T01:08:24.317Z,941.03
2023-05-04T01:09:25.028Z,941.06
2023-05-04T01:10:25.793Z,941.07
2023-05-04T01:11:26.284Z,941.03
2023-05-04T01:12:26.573Z,941.03
2023-05-04T01:13:27.292Z,941.03
2023-05-04T01:14:27.764Z,941.04
2023-05-04T01:15:28.066Z,941.02
2023-05-04T01:16:28.793Z,941.07
2023-05-04T01:17:29.693Z,941.04
2023-05-04T01:18:30.482Z,941.04
2023-05-04T01:19:30.977Z,941.08
2023-05-04T01:20:31.695Z,941.07
2023-05-04T01:21:32.406Z,941.04
2023-05-04T01:22:33.331Z,941.06
2023-05-04T01:23:33.803Z,941.06
2023-05-04T01:24:34.108Z,941.13
2023-05-04T01:25:34.434Z,941.11
2023-05-04T01:26:34.563Z,941.12
2023-05-04T01:27:35.055Z,941.12
2023-05-04T01:28:35.747Z,941.14
2023-05-04T01:29:36.041Z,941.1
2023-05-04T01:30:36.542Z,941.07
2023-05-04T01:31:36.875Z,941.11
2023-05-04T01:32:37.963Z,941.14
2023-05-04T01:33:38.224Z,941.08
2023-05-04T01:34:38.742Z,941.07
2023-05-04T01:35:39.642Z,941.11
2023-05-04T01:36:39.919Z,941.09
2023-05-04T01:37:40.858Z,941.13
2023-05-04T01:38:41.745Z,941.12
2023-05-04T01:39:42.431Z,941.13
2023-05-04T01:40:43.142Z,941.13
2023-05-04T01:41:44.060Z,941.13
2023-05-04T01:42:44.565Z,941.15
2023-05-04T01:43:44.994Z,941.14
2023-05-04T01:44:45.097Z,941.16
2023-05-04T01:45:45.572Z,941.12
2023-05-04T01:46:46.260Z,941.14
2023-05-04T01:47:46.518Z,941.12
2023-05-04T01:48:47.511Z,941.1
2023-05-04T01:49:47.825Z,941.11
2023-05-04T01:50:48.715Z,941.1
2023-05-04T01:51:49.522Z,941.05
2023-05-04T01:52:50.452Z,941.08
2023-05-04T01:53:51.090Z,941.12
2023-05-04T01:54:51.396Z,941.07
2023-05-04T01:55:52.184Z,941.08
2023-05-04T01:56:52.202Z,941.08
2023-05-04T01:57:52.346Z,941.1
2023-05-04T01:58:53.068Z,941.09
2023-05-04T01:59:53.768Z,941.05
2023-05-04T02:00:53.898Z,941.07
2023-05-04T02:01:54.462Z,941.11
2023-05-04T02:02:54.768Z,941.08
2023-05-04T02:03:55.817Z,941.11
2023-05-04T02:04:56.392Z,941.1
2023-05-04T02:05:56.883Z,941.09
2023-05-04T02:06:57.835Z,941.06
2023-05-04T02:07:58.566Z,941.11
2023-05-04T02:08:59.659Z,941.03
2023-05-04T02:09:59.813Z,941.08
2023-05-04T02:11:00.029Z,941.06
2023-05-04T02:12:00.976Z,941.06
2023-05-04T02:13:01.937Z,941.05
2023-05-04T02:14:02.999Z,941
2023-05-04T02:15:03.264Z,941.06
2023-05-04T02:16:03.986Z,941.04
2023-05-04T02:17:04.728Z,941.03
2023-05-04T02:18:05.585Z,941.01
2023-05-04T02:19:05.757Z,941.05
2023-05-04T02:20:06.603Z,941.05
2023-05-04T02:21:07.067Z,941.06
2023-05-04T02:22:07.564Z,941.06
2023-05-04T02:23:08.251Z,941.04
2023-05-04T02:24:09.157Z,941.04
2023-05-04T02:25:09.429Z,941.03
2023-05-04T02:26:10.389Z,941.08
2023-05-04T02:27:11.315Z,941.04
2023-05-04T02:28:12.207Z,941.01
2023-05-04T02:29:12.851Z,941
2023-05-04T02:30:13.360Z,941
2023-05-04T02:31:13.881Z,941.03
2023-05-04T02:32:14.778Z,941.06
2023-05-04T02:33:15.730Z,941.03
2023-05-04T02:34:15.961Z,941
2023-05-04T02:35:16.757Z,941.03
2023-05-04T02:36:17.293Z,940.97
2023-05-04T02:37:17.398Z,940.98
2023-05-04T02:38:18.155Z,941.02
2023-05-04T02:39:18.644Z,941.03
2023-05-04T02:40:19.595Z,941.03
2023-05-04T02:41:20.247Z,941.05
2023-05-04T02:42:21.228Z,941.01
2023-05-04T02:43:21.742Z,941.05
2023-05-04T02:44:22.209Z,941.03
2023-05-04T02:45:22.545Z,941.06
2023-05-04T02:46:23.670Z,941.04
2023-05-04T02:47:23.857Z,941.03
2023-05-04T02:48:24.065Z,941.04
2023-05-04T02:49:25.153Z,941.06
2023-05-04T02:50:25.457Z,941.09
2023-05-04T02:51:25.730Z,941.05
2023-05-04T02:52:26.238Z,941.04
2023-05-04T02:53:27.163Z,941.03
2023-05-04T02:54:27.888Z,941.06
2023-05-04T02:55:28.405Z,941.01
2023-05-04T02:56:29.187Z,941.03
2023-05-04T02:57:29.927Z,941.05
2023-05-04T02:58:30.444Z,941.02
2023-05-04T02:59:31.355Z,941.02
2023-05-04T03:00:32.250Z,941.03
2023-05-04T03:01:34.794Z,940.98
2023-05-04T03:02:33.090Z,941.01
2023-05-04T03:03:33.910Z,941.01
2023-05-04T03:04:34.119Z,941.01
2023-05-04T03:05:35.019Z,941
2023-05-04T03:06:35.725Z,941.04
2023-05-04T03:07:36.493Z,941.03
2023-05-04T03:08:37.192Z,941.02
2023-05-04T03:09:37.708Z,941.03
2023-05-04T03:10:38.752Z,941.01
2023-05-04T03:11:39.277Z,941.03
2023-05-04T03:12:40.044Z,940.98
2023-05-04T03:13:40.615Z,940.98
2023-05-04T03:14:40.851Z,940.96
2023-05-04T03:15:41.550Z,940.96
2023-05-04T03:16:41.937Z,940.99
2023-05-04T03:17:42.967Z,940.97
2023-05-04T03:18:56.061Z,940.98
2023-05-04T03:19:43.757Z,941.01
2023-05-04T03:20:44.105Z,941.02
2023-05-04T03:21:44.417Z,940.99
2023-05-04T03:22:45.333Z,940.95
2023-05-04T03:23:46.074Z,940.94
2023-05-04T03:24:47.116Z,940.95
2023-05-04T03:25:47.592Z,940.94
2023-05-04T03:26:48.623Z,940.93
2023-05-04T03:27:49.551Z,940.94
2023-05-04T03:28:50.233Z,940.96
2023-05-04T03:29:50.757Z,940.92
2023-05-04T03:30:50.988Z,940.97
2023-05-04T03:31:51.527Z,940.94
2023-05-04T03:32:51.775Z,940.96
2023-05-04T03:33:52.771Z,940.97
2023-05-04T03:34:53.412Z,940.95
2023-05-04T03:35:54.321Z,940.94
2023-05-04T03:36:54.620Z,940.89
2023-05-04T03:37:55.552Z,940.86
2023-05-04T03:38:56.495Z,940.88
2023-05-04T03:39:56.999Z,940.89
2023-05-04T03:40:57.147Z,940.87
2023-05-04T03:41:58.058Z,940.88
2023-05-04T03:42:58.985Z,940.86
2023-05-04T03:43:59.679Z,940.89
2023-05-04T03:45:00.697Z,940.89
2023-05-04T03:46:00.728Z,940.89
2023-05-04T03:47:01.175Z,940.86
2023-05-04T03:48:02.075Z,940.83
2023-05-04T03:49:03.080Z,940.85
2023-05-04T03:50:03.511Z,940.82
2023-05-04T03:51:03.622Z,940.79
2023-05-04T03:52:04.554Z,940.78
2023-05-04T03:53:05.028Z,940.78
2023-05-04T03:54:05.148Z,940.75
2023-05-04T03:55:05.883Z,940.75
2023-05-04T03:56:06.588Z,940.73
2023-05-04T03:57:07.040Z,940.76
2023-05-04T03:58:07.749Z,940.72
2023-05-04T03:59:08.234Z,940.7
2023-05-04T04:00:09.137Z,940.72
2023-05-04T04:01:09.838Z,940.73
2023-05-04T04:02:10.594Z,940.74
2023-05-04T04:03:11.093Z,940.74
2023-05-04T04:04:11.426Z,940.69
2023-05-04T04:05:11.903Z,940.71
2023-05-04T04:06:12.634Z,940.69
2023-05-04T04:07:13.134Z,940.66
2023-05-04T04:08:13.245Z,940.64
2023-05-04T04:09:13.968Z,940.64
2023-05-04T04:10:14.679Z,940.64
2023-05-04T04:11:15.560Z,940.65
2023-05-04T04:12:16.097Z,940.63
2023-05-04T04:13:17.070Z,940.63
2023-05-04T04:14:17.489Z,940.65
2023-05-04T04:15:17.798Z,940.64
2023-05-04T04:16:18.524Z,940.65
2023-05-04T04:17:19.060Z,940.64
2023-05-04T04:18:19.165Z,940.64
2023-05-04T04:19:20.112Z,940.65
2023-05-04T04:20:20.420Z,940.72
2023-05-04T04:21:20.721Z,940.74
2023-05-04T04:22:21.212Z,940.71
2023-05-04T04:23:21.943Z,940.73
2023-05-04T04:24:22.672Z,940.76
2023-05-04T04:25:23.044Z,940.74
2023-05-04T04:26:23.577Z,940.71
2023-05-04T04:27:24.087Z,940.7
2023-05-04T04:28:25.053Z,940.75
2023-05-04T04:29:25.359Z,940.78
2023-05-04T04:30:25.946Z,940.79
2023-05-04T04:31:26.696Z,940.79
2023-05-04T04:32:27.681Z,940.81
2023-05-04T04:33:28.545Z,940.78
2023-05-04T04:34:29.293Z,940.82
2023-05-04T04:35:30.196Z,940.81
2023-05-04T04:36:30.705Z,940.81
2023-05-04T04:37:31.423Z,940.84
2023-05-04T04:38:32.147Z,940.84
2023-05-04T04:39:33.180Z,940.84
2023-05-04T04:40:34.065Z,940.86
2023-05-04T04:41:34.391Z,940.87
2023-05-04T04:42:34.914Z,940.85
2023-05-04T04:43:35.429Z,940.85
2023-05-04T04:44:35.710Z,940.87
2023-05-04T04:45:36.777Z,940.9
2023-05-04T04:46:37.336Z,940.89
2023-05-04T04:47:38.300Z,940.87
2023-05-04T04:48:38.997Z,940.89
2023-05-04T04:49:39.971Z,940.88
2023-05-04T04:50:40.667Z,940.86
2023-05-04T04:51:41.388Z,940.85
2023-05-04T04:52:41.917Z,940.84
2023-05-04T04:53:42.619Z,940.87
2023-05-04T04:54:42.717Z,940.87
2023-05-04T04:55:42.970Z,940.88
2023-05-04T04:56:43.476Z,940.87
2023-05-04T04:57:44.450Z,940.88
2023-05-04T04:58:45.377Z,940.87
2023-05-04T04:59:46.073Z,940.9
2023-05-04T05:00:46.588Z,940.85
2023-05-04T05:01:47.537Z,940.85
2023-05-04T05:02:47.852Z,940.87
2023-05-04T05:03:48.798Z,940.87
2023-05-04T05:04:49.772Z,940.86
2023-05-04T05:05:50.504Z,940.86
2023-05-04T05:06:51.281Z,940.82
2023-05-04T05:07:51.797Z,940.85
2023-05-04T05:08:52.704Z,940.82
2023-05-04T05:09:53.218Z,940.84
2023-05-04T05:10:54.274Z,940.84
2023-05-04T05:11:54.986Z,940.85
2023-05-04T05:12:55.919Z,940.82
2023-05-04T05:13:56.872Z,940.87
2023-05-04T05:14:57.407Z,940.85
2023-05-04T05:15:57.699Z,940.85
2023-05-04T05:16:58.396Z,940.86
2023-05-04T05:17:59.309Z,940.86
2023-05-04T05:18:59.368Z,940.83
2023-05-04T05:20:00.250Z,940.85
2023-05-04T05:21:01.180Z,940.87
2023-05-04T05:22:01.884Z,940.79
2023-05-04T05:23:02.179Z,940.85
2023-05-04T05:24:02.882Z,940.84
2023-05-04T05:25:03.893Z,940.86
2023-05-04T05:26:04.151Z,940.85
2023-05-04T05:27:04.859Z,940.87
2023-05-04T05:28:05.405Z,940.87
2023-05-04T05:29:06.347Z,940.88
2023-05-04T05:30:06.854Z,940.86
2023-05-04T05:31:06.777Z,940.91
2023-05-04T05:32:07.480Z,940.87
2023-05-04T05:33:08.267Z,940.94
2023-05-04T05:34:09.029Z,940.9
2023-05-04T05:35:09.792Z,940.91
2023-05-04T05:36:10.717Z,940.91
2023-05-04T05:37:11.447Z,940.9
2023-05-04T05:38:12.345Z,940.89
2023-05-04T05:39:13.042Z,940.85
2023-05-04T05:40:14.071Z,940.89
2023-05-04T05:41:14.568Z,940.86
2023-05-04T05:42:15.268Z,940.89
2023-05-04T05:43:15.406Z,940.88
2023-05-04T05:44:16.070Z,940.85
2023-05-04T05:45:16.562Z,940.89
2023-05-04T05:46:16.874Z,940.9
2023-05-04T05:47:17.627Z,940.92
2023-05-04T05:48:18.062Z,940.9
2023-05-04T05:49:18.373Z,940.89
2023-05-04T05:50:18.643Z,940.89
2023-05-04T05:51:18.752Z,940.9
2023-05-04T05:52:19.065Z,940.92
2023-05-04T05:53:19.996Z,940.89
2023-05-04T05:54:20.500Z,940.91
2023-05-04T05:55:20.647Z,940.89
2023-05-04T05:56:21.071Z,940.92
2023-05-04T05:57:21.765Z,940.89
2023-05-04T05:58:21.946Z,940.9
2023-05-04T05:59:22.890Z,940.92
2023-05-04T06:00:23.408Z,940.9
2023-05-04T06:01:24.248Z,940.87
2023-05-04T06:02:24.328Z,940.87
2023-05-04T06:03:25.271Z,940.92
2023-05-04T06:04:25.858Z,940.93
2023-05-04T06:05:26.020Z,940.89
2023-05-04T06:06:27.038Z,940.91
2023-05-04T06:07:27.476Z,940.91
2023-05-04T06:08:27.588Z,940.94
2023-05-04T06:09:28.518Z,940.9
2023-05-04T06:10:29.316Z,940.9
2023-05-04T06:11:30.005Z,940.88
2023-05-04T06:12:30.923Z,940.88
2023-05-04T06:13:31.415Z,940.86
2023-05-04T06:14:32.383Z,940.87
2023-05-04T06:15:33.292Z,940.85
2023-05-04T06:16:34.154Z,940.88
2023-05-04T06:17:35.119Z,940.86
2023-05-04T06:18:35.219Z,940.84
2023-05-04T06:19:35.905Z,940.83
2023-05-04T06:20:36.519Z,940.84
2023-05-04T06:21:37.043Z,940.86
2023-05-04T06:22:37.543Z,940.85
2023-05-04T06:23:38.063Z,940.87
2023-05-04T06:24:38.973Z,940.82
2023-05-04T06:25:39.472Z,940.85
2023-05-04T06:26:39.728Z,940.84
2023-05-04T06:27:40.263Z,940.88
2023-05-04T06:28:40.953Z,940.9
2023-05-04T06:29:41.931Z,940.89
2023-05-04T06:30:42.842Z,940.9
2023-05-04T06:31:43.958Z,940.85
2023-05-04T06:32:43.953Z,940.86
2023-05-04T06:33:44.592Z,940.82
2023-05-04T06:34:45.287Z,940.82
2023-05-04T06:35:45.959Z,940.8
2023-05-04T06:36:46.381Z,940.78
2023-05-04T06:37:47.213Z,940.8
2023-05-04T06:38:47.601Z,940.83
2023-05-04T06:39:48.476Z,940.81
2023-05-04T06:40:49.313Z,940.83
2023-05-04T06:41:50.063Z,940.81
2023-05-04T06:42:50.274Z,940.81
2023-05-04T06:43:51.149Z,940.83
2023-05-04T06:44:51.671Z,940.83
2023-05-04T06:45:52.389Z,940.83
2023-05-04T06:46:53.313Z,940.84
2023-05-04T06:47:54.117Z,940.79
2023-05-04T06:48:54.764Z,940.81
2023-05-04T06:49:55.522Z,940.78
2023-05-04T06:50:55.743Z,940.82
2023-05-04T06:51:56.223Z,940.79
2023-05-04T06:52:56.919Z,940.83
2023-05-04T06:53:57.054Z,940.89
2023-05-04T06:54:57.353Z,940.9
2023-05-04T06:55:58.098Z,940.95
2023-05-04T06:56:58.530Z,941.04
2023-05-04T06:57:59.471Z,941
2023-05-04T06:59:00.209Z,941.06
2023-05-04T07:00:00.471Z,941.1
2023-05-04T07:01:00.876Z,941.08
2023-05-04T07:02:01.142Z,941.1
2023-05-04T07:03:02.107Z,941.13
2023-05-04T07:04:02.462Z,941.16
2023-05-04T07:05:02.721Z,941.15
2023-05-04T07:06:03.727Z,941.12
2023-05-04T07:07:04.366Z,941.13
2023-05-04T07:08:05.102Z,941.13
2023-05-04T07:09:05.787Z,941.15
2023-05-04T07:10:06.992Z,941.13
2023-05-04T07:11:07.771Z,941.14
2023-05-04T07:12:07.903Z,941.13
2023-05-04T07:13:08.715Z,941.14
2023-05-04T07:14:10.507Z,941.15
2023-05-04T07:15:09.481Z,941.1
2023-05-04T07:16:10.162Z,941.11
2023-05-04T07:17:10.334Z,941.06
2023-05-04T07:18:10.933Z,941.05
2023-05-04T07:19:11.115Z,941.1
2023-05-04T07:20:12.043Z,941.08
2023-05-04T07:21:26.608Z,941.02
2023-05-04T07:22:13.366Z,941
2023-05-04T07:23:13.881Z,941.02
2023-05-04T07:24:14.392Z,941.02
2023-05-04T07:25:14.877Z,941.04
2023-05-04T07:26:15.883Z,940.99
2023-05-04T07:27:16.895Z,941.01
2023-05-04T07:28:17.436Z,941.02
2023-05-04T07:29:18.374Z,941
2023-05-04T07:30:18.913Z,941.02
2023-05-04T07:31:19.430Z,941.03
2023-05-04T07:32:19.783Z,941.02
2023-05-04T07:33:19.903Z,940.98
2023-05-04T07:34:20.237Z,940.98
2023-05-04T07:35:21.193Z,940.94
2023-05-04T07:36:22.294Z,940.96
2023-05-04T07:37:22.919Z,940.97
2023-05-04T07:38:23.217Z,940.97
2023-05-04T07:39:23.542Z,940.97
2023-05-04T07:40:24.097Z,940.94
2023-05-04T07:41:24.949Z,940.94
2023-05-04T07:42:25.662Z,940.91
2023-05-04T07:43:26.595Z,940.92
2023-05-04T07:44:27.119Z,940.96
2023-05-04T07:45:28.090Z,940.95
2023-05-04T07:46:28.946Z,940.94
2023-05-04T07:47:29.819Z,940.93
2023-05-04T07:48:30.280Z,940.92
2023-05-04T07:49:30.387Z,940.88
2023-05-04T07:50:31.086Z,940.89
2023-05-04T07:51:32.137Z,940.9
2023-05-04T07:52:33.080Z,940.87
2023-05-04T07:53:33.658Z,940.87
2023-05-04T07:54:34.611Z,940.84
2023-05-04T07:55:35.320Z,940.85
2023-05-04T07:56:36.261Z,940.87
2023-05-04T07:57:36.502Z,940.89
2023-05-04T07:58:37.221Z,940.9
2023-05-04T07:59:38.206Z,940.85
2023-05-04T08:00:38.984Z,940.86
2023-05-04T08:01:40.400Z,940.86
2023-05-04T08:02:40.345Z,940.86
2023-05-04T08:03:41.346Z,940.86
2023-05-04T08:04:42.055Z,940.89
2023-05-04T08:05:42.779Z,940.93
2023-05-04T08:06:43.203Z,940.91
2023-05-04T08:07:44.018Z,940.89
2023-05-04T08:08:44.535Z,940.9
2023-05-04T08:09:45.453Z,940.92
2023-05-04T08:10:45.830Z,940.92
2023-05-04T08:11:47.085Z,940.97
2023-05-04T08:12:47.466Z,940.93
2023-05-04T08:13:47.860Z,940.94
2023-05-04T08:14:48.828Z,940.93
2023-05-04T08:15:49.238Z,940.88
2023-05-04T08:16:50.240Z,940.91
2023-05-04T08:17:50.476Z,940.89
2023-05-04T08:18:50.733Z,940.92
2023-05-04T08:19:51.732Z,940.89
2023-05-04T08:20:51.972Z,940.91
2023-05-04T08:21:52.325Z,940.86
2023-05-04T08:22:53.226Z,940.87
2023-05-04T08:23:53.595Z,940.89
2023-05-04T08:24:54.179Z,940.87
2023-05-04T08:25:55.217Z,940.82
2023-05-04T08:27:06.895Z,940.86
2023-05-04T08:27:56.139Z,940.84
2023-05-04T08:28:56.636Z,940.88
2023-05-04T08:29:57.217Z,940.85
2023-05-04T08:30:58.198Z,940.87
2023-05-04T08:31:58.504Z,940.86
2023-05-04T08:32:58.675Z,940.9
2023-05-04T08:33:59.661Z,940.91
2023-05-04T08:35:00.638Z,940.9
2023-05-04T08:36:01.648Z,940.91
2023-05-04T08:37:02.512Z,940.9
2023-05-04T08:38:03.066Z,940.95
2023-05-04T08:39:03.827Z,940.92
2023-05-04T08:40:04.756Z,940.93
2023-05-04T08:41:05.560Z,940.92
2023-05-04T08:42:05.861Z,940.95
2023-05-04T08:43:06.784Z,940.96
2023-05-04T08:44:07.685Z,941.02
2023-05-04T08:45:08.260Z,940.99
2023-05-04T08:46:09.122Z,940.96
2023-05-04T08:47:09.710Z,941.02
2023-05-04T08:48:10.234Z,941.01
2023-05-04T08:49:10.378Z,941.01
2023-05-04T08:50:10.692Z,940.99
2023-05-04T08:51:11.655Z,941.1
2023-05-04T08:52:12.718Z,941.06
2023-05-04T08:53:13.281Z,941.03
2023-05-04T08:54:13.459Z,941.06
2023-05-04T08:55:14.292Z,941.06
2023-05-04T08:56:15.044Z,941.07
2023-05-04T08:57:15.195Z,941.09
2023-05-04T08:58:16.144Z,941.09
2023-05-04T08:59:16.667Z,941.07
2023-05-04T09:00:17.546Z,941.04
2023-05-04T09:01:18.055Z,941.07
2023-05-04T09:02:19.012Z,941.05
2023-05-04T09:03:20.094Z,941.05
2023-05-04T09:04:20.277Z,941.02
2023-05-04T09:05:20.764Z,941.04
2023-05-04T09:06:21.688Z,941.06
2023-05-04T09:07:21.997Z,941.06
2023-05-04T09:08:22.109Z,941.05
2023-05-04T09:09:23.080Z,941
2023-05-04T09:10:24.053Z,941.04
2023-05-04T09:11:24.965Z,940.98
2023-05-04T09:12:25.316Z,941.03
2023-05-04T09:13:26.277Z,941.06
2023-05-04T09:14:27.256Z,941.06
2023-05-04T09:15:28.042Z,941.08
2023-05-04T09:16:28.151Z,941.06
2023-05-04T09:17:29.098Z,941.01
2023-05-04T09:18:36.140Z,941.03
2023-05-04T09:19:37.156Z,941.01
2023-05-04T09:20:37.963Z,941.03
2023-05-04T09:21:38.522Z,940.99
2023-05-04T09:22:39.012Z,940.94
2023-05-04T09:23:39.777Z,940.97
2023-05-04T09:24:40.581Z,940.95
2023-05-04T09:25:41.304Z,940.94
2023-05-04T09:26:42.082Z,940.94
2023-05-04T09:27:43.077Z,940.94
2023-05-04T09:28:43.566Z,940.94
2023-05-04T09:29:44.510Z,940.94
2023-05-04T09:30:44.873Z,940.97
2023-05-04T09:31:45.789Z,940.94
2023-05-04T09:32:46.544Z,940.96
2023-05-04T09:33:46.944Z,940.96
2023-05-04T09:34:47.197Z,940.97
2023-05-04T09:35:48.133Z,940.97
2023-05-04T09:36:48.685Z,941.03
2023-05-04T09:37:49.686Z,941.02
2023-05-04T09:38:49.959Z,940.97
2023-05-04T09:39:50.916Z,940.97
2023-05-04T09:40:51.530Z,941.01
2023-05-04T09:41:51.664Z,941.01
2023-05-04T09:42:51.827Z,941.01
2023-05-04T09:43:52.548Z,940.98
2023-05-04T09:44:53.062Z,940.96
2023-05-04T09:45:53.518Z,940.97
2023-05-04T09:46:53.836Z,940.97
2023-05-04T09:47:54.796Z,940.94
2023-05-04T09:48:55.018Z,940.94
2023-05-04T09:49:55.779Z,940.91
2023-05-04T09:50:56.585Z,940.92
2023-05-04T09:51:57.509Z,940.95
2023-05-04T09:52:57.956Z,940.92
2023-05-04T09:53:58.689Z,940.92
2023-05-04T09:54:59.795Z,940.9
2023-05-04T09:56:02.293Z,940.88
2023-05-04T09:57:00.861Z,940.92
2023-05-04T09:58:01.654Z,940.92
2023-05-04T09:59:02.101Z,940.91
2023-05-04T10:00:02.852Z,940.93
2023-05-04T10:01:03.921Z,940.92
2023-05-04T10:02:14.330Z,940.88
2023-05-04T10:03:04.265Z,940.93
2023-05-04T10:04:05.148Z,940.94
2023-05-04T10:05:06.107Z,940.89
2023-05-04T10:06:06.604Z,940.89
2023-05-04T10:07:07.358Z,940.85
2023-05-04T10:08:08.176Z,940.79
2023-05-04T10:09:09.158Z,940.82
2023-05-04T10:10:09.297Z,940.8
2023-05-04T10:11:10.264Z,940.79
2023-05-04T10:12:11.208Z,940.8
2023-05-04T10:13:11.607Z,940.81
2023-05-04T10:14:11.954Z,940.8
2023-05-04T10:15:12.470Z,940.77
2023-05-04T10:16:13.516Z,940.72
2023-05-04T10:17:13.957Z,940.72
2023-05-04T10:18:14.744Z,940.69
2023-05-04T10:19:15.312Z,940.72
2023-05-04T10:20:16.061Z,940.63
2023-05-04T10:21:16.799Z,940.67
2023-05-04T10:22:17.110Z,940.67
2023-05-04T10:23:17.288Z,940.64
2023-05-04T10:24:17.556Z,940.65
2023-05-04T10:25:18.264Z,940.63
2023-05-04T10:26:19.088Z,940.62
2023-05-04T10:27:19.639Z,940.59
2023-05-04T10:28:20.612Z,940.6
2023-05-04T10:29:23.250Z,940.58
2023-05-04T10:30:21.649Z,940.63
2023-05-04T10:31:22.688Z,940.59
2023-05-04T10:32:22.802Z,940.6
2023-05-04T10:33:23.655Z,940.61
2023-05-04T10:34:24.487Z,940.57
2023-05-04T10:35:24.917Z,940.61
2023-05-04T10:36:25.506Z,940.53
2023-05-04T10:37:26.460Z,940.56
2023-05-04T10:38:27.443Z,940.53
2023-05-04T10:39:28.094Z,940.51
2023-05-04T10:40:28.839Z,940.47
2023-05-04T10:41:29.859Z,940.49
2023-05-04T10:42:30.591Z,940.52
2023-05-04T10:43:30.741Z,940.55
2023-05-04T10:44:31.690Z,940.5
2023-05-04T10:45:32.772Z,940.49
2023-05-04T10:46:33.630Z,940.46
2023-05-04T10:47:33.878Z,940.47
2023-05-04T10:48:34.493Z,940.47
2023-05-04T10:49:35.129Z,940.54
2023-05-04T10:50:36.087Z,940.46
2023-05-04T10:51:46.672Z,940.47
2023-05-04T10:52:37.331Z,940.46
2023-05-04T10:53:38.110Z,940.41
2023-05-04T10:54:38.841Z,940.4
2023-05-04T10:55:39.748Z,940.42
2023-05-04T10:56:40.347Z,940.41
2023-05-04T10:57:40.863Z,940.38
2023-05-04T10:58:41.672Z,940.37
2023-05-04T10:59:41.929Z,940.4
2023-05-04T11:00:42.922Z,940.4
2023-05-04T11:01:43.293Z,940.33
2023-05-04T11:02:43.526Z,940.34
2023-05-04T11:03:44.166Z,940.34
2023-05-04T11:04:45.221Z,940.32
2023-05-04T11:05:45.556Z,940.32
2023-05-04T11:06:46.276Z,940.31
2023-05-04T11:07:46.442Z,940.31
2023-05-04T11:08:46.996Z,940.29
2023-05-04T11:09:47.834Z,940.31
2023-05-04T11:10:48.379Z,940.27
2023-05-04T11:11:48.922Z,940.3
2023-05-04T11:12:49.403Z,940.33
2023-05-04T11:13:49.747Z,940.27
2023-05-04T11:14:50.450Z,940.27
2023-05-04T11:15:50.726Z,940.24
2023-05-04T11:16:51.424Z,940.29
2023-05-04T11:17:51.877Z,940.28
2023-05-04T11:18:52.914Z,940.25
2023-05-04T11:19:53.159Z,940.28
2023-05-04T11:20:53.911Z,940.28
2023-05-04T11:21:54.100Z,940.3
2023-05-04T11:22:55.103Z,940.3
2023-05-04T11:23:55.716Z,940.29
2023-05-04T11:24:56.432Z,940.28
2023-05-04T11:25:57.287Z,940.26
2023-05-04T11:26:58.117Z,940.26
2023-05-04T11:27:58.977Z,940.24
2023-05-04T11:28:59.253Z,940.28
2023-05-04T11:30:00.370Z,940.28
2023-05-04T11:31:00.935Z,940.21
2023-05-04T11:32:01.574Z,940.22
2023-05-04T11:33:02.337Z,940.21
2023-05-04T11:34:02.995Z,940.23
2023-05-04T11:35:03.750Z,940.2
2023-05-04T11:36:03.921Z,940.2
2023-05-04T11:37:04.050Z,940.21
2023-05-04T11:38:04.549Z,940.24
2023-05-04T11:39:05.565Z,940.18
2023-05-04T11:40:06.641Z,940.2
2023-05-04T11:41:07.389Z,940.2
2023-05-04T11:42:07.949Z,940.24
2023-05-04T11:43:08.885Z,940.18
2023-05-04T11:44:09.712Z,940.2
2023-05-04T11:45:10.779Z,940.17
2023-05-04T11:46:11.408Z,940.17
2023-05-04T11:47:11.977Z,940.13
2023-05-04T11:48:12.984Z,940.1
2023-05-04T11:49:13.744Z,940.09
2023-05-04T11:50:14.495Z,940.1
2023-05-04T11:51:14.510Z,940.11
2023-05-04T11:52:15.345Z,940.07
2023-05-04T11:53:15.905Z,940.06
2023-05-04T11:54:17.012Z,940.04
2023-05-04T11:55:17.979Z,940.04
2023-05-04T11:56:18.678Z,940.06
2023-05-04T11:57:19.067Z,940.04
2023-05-04T11:58:19.201Z,940
2023-05-04T11:59:19.983Z,939.96
2023-05-04T12:00:20.605Z,939.99
2023-05-04T12:01:21.334Z,940
2023-05-04T12:02:22.489Z,939.98
2023-05-04T12:03:23.419Z,939.96
2023-05-04T12:04:23.391Z,939.94
2023-05-04T12:05:23.990Z,939.93
2023-05-04T12:06:24.682Z,939.89
2023-05-04T12:07:24.835Z,939.89
2023-05-04T12:08:25.553Z,939.93
2023-05-04T12:09:26.493Z,939.91
2023-05-04T12:10:26.670Z,939.92
2023-05-04T12:11:26.991Z,939.88
2023-05-04T12:12:27.922Z,939.86
2023-05-04T12:13:28.258Z,939.86
2023-05-04T12:14:29.013Z,939.83
2023-05-04T12:15:29.920Z,939.87
2023-05-04T12:16:30.902Z,939.86
2023-05-04T12:17:31.227Z,939.85
2023-05-04T12:18:31.633Z,939.87
2023-05-04T12:19:32.374Z,939.9
2023-05-04T12:20:32.982Z,939.88
2023-05-04T12:21:33.510Z,939.88
2023-05-04T12:22:34.438Z,939.87
2023-05-04T12:23:35.027Z,939.88
2023-05-04T12:24:35.272Z,939.88
2023-05-04T12:25:37.155Z,939.88
2023-05-04T12:26:36.069Z,939.89
2023-05-04T12:27:36.656Z,939.91
2023-05-04T12:28:37.213Z,939.92
2023-05-04T12:29:37.461Z,939.91
2023-05-04T12:30:38.529Z,939.88
2023-05-04T12:31:39.070Z,939.87
2023-05-04T12:32:39.917Z,939.87
2023-05-04T12:33:40.051Z,939.85
2023-05-04T12:34:41.016Z,939.85
2023-05-04T12:35:41.570Z,939.83
2023-05-04T12:36:41.689Z,939.84
2023-05-04T12:37:42.605Z,939.83
2023-05-04T12:38:43.157Z,939.85
2023-05-04T12:39:43.270Z,939.85